createdAt,value
2023-01-21T00:02:18.770Z,27.55
2023-01-21T00:04:54.761Z,28.15
2023-01-21T00:07:48.294Z,27.75
2023-01-21T00:10:16.721Z,26.73
2023-01-21T00:13:38.388Z,25.92
2023-01-21T00:16:17.552Z,26.58
2023-01-21T00:18:44.616Z,27.50
2023-01-21T00:21:13.595Z,26.70
2023-01-21T00:23:52.529Z,27.20
2023-01-21T00:26:20.090Z,27.30
2023-01-21T00:28:49.561Z,27.52
2023-01-21T00:31:17.018Z,27.13
2023-01-21T00:33:45.001Z,28.63
2023-01-21T00:39:10.405Z,27.25
2023-01-21T00:42:05.822Z,27.00
2023-01-21T00:44:38.029Z,29.08
2023-01-21T00:47:07.730Z,27.38
2023-01-21T00:49:35.793Z,28.45
2023-01-21T00:52:07.212Z,28.90
2023-01-21T00:54:41.591Z,28.33
2023-01-21T00:57:23.049Z,28.77
2023-01-21T00:59:51.612Z,28.40
2023-01-21T01:02:20.230Z,30.52
2023-01-21T01:04:52.198Z,29.67
2023-01-21T01:07:19.238Z,29.08
2023-01-21T01:09:48.746Z,30.35
2023-01-21T01:16:42.295Z,29.42
2023-01-21T01:20:05.662Z,29.92
2023-01-21T01:22:36.975Z,30.42
2023-01-21T01:25:06.277Z,30.58
2023-01-21T01:27:36.909Z,31.70
2023-01-21T01:30:12.536Z,30.83
2023-01-21T01:32:40.721Z,31.80
2023-01-21T01:35:16.911Z,31.25
2023-01-21T01:37:44.219Z,32.10
2023-01-21T01:40:12.003Z,32.20
2023-01-21T01:42:44.868Z,31.83
2023-01-21T01:45:21.255Z,33.13
2023-01-21T01:48:00.787Z,31.92
2023-01-21T01:50:37.394Z,32.40
2023-01-21T01:53:09.539Z,32.08
2023-01-21T01:55:40.965Z,33.08
2023-01-21T01:58:17.142Z,31.45
2023-01-21T02:00:47.359Z,31.63
2023-01-21T02:03:35.114Z,31.00
2023-01-21T02:06:05.585Z,30.98
2023-01-21T02:08:39.256Z,32.65
2023-01-21T02:11:17.099Z,32.63
2023-01-21T02:13:53.760Z,31.65
2023-01-21T02:16:42.426Z,31.25
2023-01-21T02:24:03.911Z,30.15
2023-01-21T02:26:46.540Z,33.08
2023-01-21T02:29:32.894Z,32.58
2023-01-21T02:32:30.013Z,33.53
2023-01-21T02:35:05.652Z,34.90
2023-01-21T02:38:05.094Z,34.25
2023-01-21T02:45:04.653Z,32.28
2023-01-21T02:48:09.969Z,33.00
2023-01-21T02:50:54.062Z,34.30
2023-01-21T02:53:30.909Z,32.17
2023-01-21T02:56:09.564Z,34.65
2023-01-21T02:59:03.490Z,34.55
2023-01-21T03:05:53.473Z,33.43
2023-01-21T03:08:36.290Z,36.50
2023-01-21T03:11:15.621Z,33.58
2023-01-21T03:14:13.366Z,34.95
2023-01-21T03:16:57.774Z,34.45
2023-01-21T03:19:56.275Z,34.40
2023-01-21T03:22:28.577Z,33.95
2023-01-21T03:25:01.367Z,35.13
2023-01-21T03:27:32.096Z,36.55
2023-01-21T03:30:09.790Z,35.00
2023-01-21T03:32:41.211Z,35.03
2023-01-21T03:35:38.927Z,37.45
2023-01-21T03:38:24.015Z,35.95
2023-01-21T03:41:02.356Z,36.42
2023-01-21T03:43:30.645Z,36.08
2023-01-21T03:46:14.124Z,36.33
2023-01-21T03:48:57.507Z,37.70
2023-01-21T03:51:32.810Z,36.00
2023-01-21T03:54:03.007Z,34.55
2023-01-21T03:56:54.829Z,36.22
2023-01-21T03:59:22.518Z,35.22
2023-01-21T04:01:51.907Z,36.40
2023-01-21T04:04:18.965Z,37.28
2023-01-21T04:06:47.538Z,35.83
2023-01-21T04:09:16.946Z,36.22
2023-01-21T04:11:46.556Z,38.65
2023-01-21T04:14:15.944Z,36.03
2023-01-21T04:16:46.210Z,37.28
2023-01-21T04:19:13.538Z,36.90
2023-01-21T04:21:45.411Z,35.75
2023-01-21T04:24:14.789Z,35.58
2023-01-21T04:26:45.030Z,37.28
2023-01-21T04:29:22.169Z,37.65
2023-01-21T04:31:51.625Z,36.95
2023-01-21T04:34:22.427Z,36.83
2023-01-21T04:36:51.601Z,36.33
2023-01-21T04:39:22.032Z,36.25
2023-01-21T04:41:50.198Z,36.97
2023-01-21T04:44:20.614Z,39.15
2023-01-21T04:46:49.139Z,40.38
2023-01-21T04:49:17.351Z,36.65
2023-01-21T04:51:47.707Z,37.42
2023-01-21T04:54:20.113Z,37.58
2023-01-21T04:56:51.687Z,36.38
2023-01-21T04:59:20.004Z,36.17
2023-01-21T05:01:48.101Z,36.58
2023-01-21T05:04:24.049Z,37.05
2023-01-21T05:06:52.703Z,36.35
2023-01-21T05:10:21.447Z,35.97
2023-01-21T05:12:50.781Z,35.53
2023-01-21T05:19:45.271Z,36.58
2023-01-21T05:23:20.529Z,35.97
2023-01-21T05:26:03.344Z,35.40
2023-01-21T05:29:32.756Z,37.70
2023-01-21T05:32:02.923Z,36.45
2023-01-21T05:34:33.078Z,36.28
2023-01-21T05:37:03.451Z,37.90
2023-01-21T05:43:58.323Z,36.22
2023-01-21T05:46:25.539Z,36.33
2023-01-21T05:48:52.619Z,38.92
2023-01-21T05:51:21.210Z,37.88
2023-01-21T05:53:52.340Z,38.95
2023-01-21T05:56:27.661Z,37.47
2023-01-21T05:58:59.309Z,37.53
2023-01-21T06:01:28.982Z,38.40
2023-01-21T06:03:57.643Z,38.60
2023-01-21T06:06:26.065Z,39.40
2023-01-21T06:08:53.426Z,38.28
2023-01-21T06:11:23.145Z,38.08
2023-01-21T06:13:52.726Z,39.90
2023-01-21T06:16:19.901Z,40.22
2023-01-21T06:21:30.945Z,39.70
2023-01-21T06:24:01.776Z,41.15
2023-01-21T06:26:30.045Z,39.78
2023-01-21T06:28:58.077Z,42.10
2023-01-21T06:31:28.663Z,41.80
2023-01-21T06:33:57.904Z,39.17
2023-01-21T06:36:30.768Z,39.78
2023-01-21T06:39:01.112Z,41.33
2023-01-21T06:49:44.092Z,37.55
2023-01-21T06:52:12.269Z,40.25
2023-01-21T06:54:40.364Z,38.67
2023-01-21T06:57:09.614Z,41.85
2023-01-21T06:59:38.577Z,40.85
2023-01-21T07:02:07.359Z,42.25
2023-01-21T07:04:36.959Z,42.35
2023-01-21T07:07:05.193Z,41.25
2023-01-21T07:09:34.571Z,41.55
2023-01-21T07:12:02.953Z,41.80
2023-01-21T07:14:33.089Z,40.45
2023-01-21T07:17:01.411Z,40.15
2023-01-21T07:19:38.003Z,42.40
2023-01-21T07:22:06.863Z,40.97
2023-01-21T07:24:39.373Z,40.70
2023-01-21T07:29:36.412Z,39.53
2023-01-21T07:32:05.204Z,38.90
2023-01-21T07:34:33.953Z,39.75
2023-01-21T07:37:01.034Z,40.55
2023-01-21T07:39:33.226Z,41.50
2023-01-21T07:42:01.536Z,42.10
2023-01-21T07:44:30.520Z,40.05
2023-01-21T07:46:58.694Z,42.28
2023-01-21T07:49:25.803Z,40.30
2023-01-21T07:51:59.497Z,39.65
2023-01-21T07:54:34.063Z,38.92
2023-01-21T07:57:03.444Z,40.13
2023-01-21T07:59:55.981Z,39.13
2023-01-21T08:02:32.629Z,39.28
2023-01-21T08:05:00.532Z,40.13
2023-01-21T08:07:28.434Z,41.25
2023-01-21T08:09:58.852Z,39.72
2023-01-21T08:12:27.342Z,38.95
2023-01-21T08:14:55.460Z,39.85
2023-01-21T08:17:22.521Z,39.75
2023-01-21T08:19:50.532Z,40.42
2023-01-21T08:22:17.637Z,40.45
2023-01-21T08:24:44.617Z,39.10
2023-01-21T08:27:12.490Z,39.70
2023-01-21T08:29:39.450Z,39.03
2023-01-21T08:32:07.488Z,39.10
2023-01-21T08:34:34.593Z,40.10
2023-01-21T08:37:01.610Z,39.15
2023-01-21T08:39:28.864Z,41.17
2023-01-21T08:41:56.851Z,39.38
2023-01-21T08:44:23.899Z,39.47
2023-01-21T08:46:51.112Z,38.45
2023-01-21T08:49:19.448Z,39.50
2023-01-21T08:51:47.759Z,38.33
2023-01-21T08:54:15.280Z,39.13
2023-01-21T08:56:45.674Z,40.10
2023-01-21T08:59:13.104Z,40.88
2023-01-21T09:01:42.331Z,38.05
2023-01-21T09:04:15.265Z,38.08
2023-01-21T09:06:47.424Z,39.13
2023-01-21T09:09:18.628Z,40.53
2023-01-21T09:11:46.946Z,38.88
2023-01-21T09:14:14.992Z,39.67
2023-01-21T09:16:45.036Z,38.30
2023-01-21T09:19:13.507Z,38.10
2023-01-21T09:21:40.569Z,39.00
2023-01-21T09:24:08.700Z,37.58
2023-01-21T09:26:37.692Z,37.40
2023-01-21T09:29:05.808Z,38.38
2023-01-21T09:31:32.731Z,40.78
2023-01-21T09:34:04.252Z,38.42
2023-01-21T09:36:34.417Z,37.83
2023-01-21T09:39:07.312Z,40.67
2023-01-21T09:41:46.233Z,39.92
2023-01-21T09:44:45.156Z,38.38
2023-01-21T09:50:41.339Z,38.85
2023-01-21T09:53:36.119Z,38.60
2023-01-21T09:56:21.134Z,38.33
2023-01-21T09:58:59.700Z,38.97
2023-01-21T10:01:40.322Z,37.88
2023-01-21T10:04:27.911Z,39.13
2023-01-21T10:07:15.674Z,36.72
2023-01-21T10:10:04.669Z,39.50
2023-01-21T10:13:00.329Z,39.25
2023-01-21T10:19:22.892Z,36.58
2023-01-21T10:22:06.110Z,38.35
2023-01-21T10:24:40.596Z,37.25
2023-01-21T10:27:15.326Z,37.17
2023-01-21T10:29:46.686Z,39.28
2023-01-21T10:32:20.742Z,38.33
2023-01-21T10:34:55.412Z,37.35
2023-01-21T10:38:07.511Z,38.00
2023-01-21T10:41:26.937Z,37.17
2023-01-21T10:44:35.460Z,35.65
2023-01-21T10:47:11.605Z,35.60
2023-01-21T10:50:06.436Z,36.35
2023-01-21T10:53:07.060Z,35.75
2023-01-21T10:55:45.698Z,37.38
2023-01-21T10:58:25.778Z,36.13
2023-01-21T11:00:57.443Z,36.67
2023-01-21T11:03:45.793Z,34.00
2023-01-21T11:06:18.730Z,34.60
2023-01-21T11:08:50.095Z,34.67
2023-01-21T11:11:26.922Z,35.60
2023-01-21T11:13:57.074Z,34.28
2023-01-21T11:16:37.290Z,35.33
2023-01-21T11:19:08.244Z,35.05
2023-01-21T11:21:42.685Z,34.95
2023-01-21T11:24:24.401Z,33.95
2023-01-21T11:26:55.430Z,34.45
2023-01-21T11:29:25.564Z,32.20
2023-01-21T11:32:05.502Z,34.65
2023-01-21T11:34:34.985Z,34.00
2023-01-21T11:37:08.148Z,33.42
2023-01-21T11:39:44.144Z,34.03
2023-01-21T11:42:16.142Z,33.35
2023-01-21T11:45:06.158Z,33.65
2023-01-21T11:47:49.992Z,33.28
2023-01-21T11:50:23.967Z,32.83
2023-01-21T11:53:13.566Z,34.85
2023-01-21T11:55:48.400Z,32.42
2023-01-21T11:58:28.915Z,34.17
2023-01-21T12:01:00.092Z,31.90
2023-01-21T12:03:44.165Z,32.35
2023-01-21T12:06:38.016Z,32.85
2023-01-21T12:09:08.028Z,31.83
2023-01-21T12:11:36.455Z,34.88
2023-01-21T12:14:20.647Z,36.03
2023-01-21T12:17:00.218Z,33.83
2023-01-21T12:19:47.513Z,32.72
2023-01-21T12:22:45.072Z,32.72
2023-01-21T12:25:52.879Z,34.20
2023-01-21T12:28:48.919Z,33.35
2023-01-21T12:31:32.750Z,34.03
2023-01-21T12:34:33.977Z,34.17
2023-01-21T12:37:10.571Z,36.20
2023-01-21T12:39:40.830Z,35.50
2023-01-21T12:42:29.443Z,37.25
2023-01-21T12:45:06.677Z,39.40
2023-01-21T12:47:52.294Z,39.47
2023-01-21T12:50:45.951Z,41.42
2023-01-21T12:53:19.894Z,39.85
2023-01-21T13:00:27.308Z,44.53
2023-01-21T13:03:26.575Z,42.88
2023-01-21T13:06:06.700Z,45.40
2023-01-21T13:08:40.721Z,43.63
2023-01-21T13:11:23.549Z,44.03
2023-01-21T13:13:57.887Z,38.78
2023-01-21T13:16:33.410Z,41.67
2023-01-21T13:27:33.247Z,45.88
2023-01-21T13:30:19.977Z,43.58
2023-01-21T13:33:42.768Z,41.92
2023-01-21T13:36:37.326Z,43.92
2023-01-21T13:43:11.496Z,42.92
2023-01-21T13:46:03.937Z,46.20
2023-01-21T13:48:53.077Z,38.67
2023-01-21T13:51:36.716Z,41.47
2023-01-21T13:54:48.006Z,40.50
2023-01-21T13:58:02.515Z,42.97
2023-01-21T14:01:00.003Z,39.67
2023-01-21T14:03:56.215Z,39.70
2023-01-21T14:06:29.893Z,41.80
2023-01-21T14:09:20.984Z,40.47
2023-01-21T14:11:59.802Z,38.25
2023-01-21T14:15:07.429Z,36.78
2023-01-21T14:18:23.409Z,38.33
2023-01-21T14:21:54.742Z,34.80
2023-01-21T14:24:54.885Z,37.67
2023-01-21T14:27:34.819Z,36.55
2023-01-21T14:30:17.539Z,36.72
2023-01-21T14:32:57.197Z,37.83
2023-01-21T14:35:33.356Z,40.00
2023-01-21T14:38:26.420Z,36.33
2023-01-21T14:41:09.890Z,36.65
2023-01-21T14:43:46.670Z,34.22
2023-01-21T14:46:29.092Z,35.58
2023-01-21T14:49:11.886Z,32.78
2023-01-21T14:54:27.574Z,32.00
2023-01-21T14:57:18.192Z,35.38
2023-01-21T14:59:47.688Z,32.85
2023-01-21T15:02:32.868Z,34.03
2023-01-21T15:05:22.080Z,33.67
2023-01-21T15:08:01.525Z,33.38
2023-01-21T15:10:38.686Z,33.20
2023-01-21T15:16:19.596Z,31.67
2023-01-21T15:19:13.097Z,31.20
2023-01-21T15:21:41.560Z,30.65
2023-01-21T15:24:25.787Z,32.42
2023-01-21T15:27:11.594Z,32.53
2023-01-21T15:29:40.727Z,32.08
2023-01-21T15:32:29.539Z,31.63
2023-01-21T15:35:29.382Z,32.42
2023-01-21T15:38:14.416Z,29.58
2023-01-21T15:40:53.222Z,31.25
2023-01-21T15:43:37.066Z,30.42
2023-01-21T15:46:30.951Z,30.95
2023-01-21T15:48:59.862Z,31.55
2023-01-21T15:51:39.366Z,29.73
2023-01-21T15:54:32.523Z,29.08
2023-01-21T15:57:26.164Z,30.35
2023-01-21T16:00:02.350Z,30.52
2023-01-21T16:02:34.293Z,31.13
2023-01-21T16:05:59.234Z,31.88
2023-01-21T16:09:02.633Z,30.02
2023-01-21T16:12:19.358Z,29.80
2023-01-21T16:15:01.363Z,30.15
2023-01-21T16:17:44.218Z,29.85
2023-01-21T16:20:13.959Z,33.83
2023-01-21T16:22:44.932Z,32.28
2023-01-21T16:25:22.110Z,33.00
2023-01-21T16:27:52.786Z,31.85
2023-01-21T16:30:31.221Z,33.85
2023-01-21T16:33:14.388Z,31.98
2023-01-21T16:36:06.941Z,31.52
2023-01-21T16:38:37.477Z,30.90
2023-01-21T16:41:16.268Z,29.50
2023-01-21T16:44:04.344Z,31.10
2023-01-21T16:46:39.150Z,29.67
2023-01-21T16:49:17.527Z,30.98
2023-01-21T16:51:55.964Z,31.27
2023-01-21T16:54:30.076Z,31.10
2023-01-21T16:57:20.924Z,30.55
2023-01-21T16:59:49.318Z,34.92
2023-01-21T17:02:28.516Z,31.30
2023-01-21T17:04:57.735Z,34.25
2023-01-21T17:07:42.030Z,33.03
2023-01-21T17:10:15.119Z,35.72
2023-01-21T17:12:50.604Z,32.08
2023-01-21T17:15:53.252Z,33.33
2023-01-21T17:18:34.447Z,32.35
2023-01-21T17:21:04.036Z,34.08
2023-01-21T17:23:50.233Z,31.85
2023-01-21T17:26:19.584Z,33.17
2023-01-21T17:28:53.747Z,31.83
2023-01-21T17:31:38.745Z,33.55
2023-01-21T17:34:07.194Z,33.75
2023-01-21T17:36:39.211Z,42.65
2023-01-21T17:39:07.984Z,34.33
2023-01-21T17:41:44.793Z,34.58
2023-01-21T17:44:24.044Z,34.95
2023-01-21T17:46:55.241Z,34.45
2023-01-21T17:49:25.687Z,35.85
2023-01-21T17:51:54.798Z,38.83
2023-01-21T17:54:27.472Z,35.03
2023-01-21T17:56:59.949Z,35.70
2023-01-21T17:59:38.555Z,37.97
2023-01-21T18:02:14.493Z,35.45
2023-01-21T18:04:42.736Z,35.40
2023-01-21T18:07:25.519Z,35.65
2023-01-21T18:12:21.987Z,33.33
2023-01-21T18:14:48.974Z,34.72
2023-01-21T18:17:24.095Z,35.78
2023-01-21T18:19:51.036Z,37.17
2023-01-21T18:22:27.683Z,36.20
2023-01-21T18:24:55.152Z,39.55
2023-01-21T18:27:26.217Z,38.20
2023-01-21T18:29:57.912Z,36.50
2023-01-21T18:32:25.097Z,37.40
2023-01-21T18:34:51.960Z,36.45
2023-01-21T18:37:20.742Z,37.50
2023-01-21T18:39:50.810Z,35.70
2023-01-21T18:42:21.371Z,34.60
2023-01-21T18:44:48.325Z,37.78
2023-01-21T18:47:21.885Z,34.33
2023-01-21T18:49:51.980Z,36.03
2023-01-21T18:52:22.383Z,35.63
2023-01-21T18:54:53.480Z,35.72
2023-01-21T18:57:27.986Z,38.13
2023-01-21T18:59:56.346Z,35.90
2023-01-21T19:02:24.725Z,35.70
2023-01-21T19:04:52.548Z,36.42
2023-01-21T19:07:22.896Z,34.38
2023-01-21T19:09:51.371Z,35.05
2023-01-21T19:12:22.254Z,34.45
2023-01-21T19:14:49.257Z,35.63
2023-01-21T19:17:26.332Z,36.05
2023-01-21T19:19:55.135Z,34.70
2023-01-21T19:22:25.752Z,34.17
2023-01-21T19:25:16.299Z,33.53
2023-01-21T19:27:49.830Z,32.55
2023-01-21T19:30:31.924Z,33.97
2023-01-21T19:33:01.347Z,32.88
2023-01-21T19:35:32.394Z,32.88
2023-01-21T19:38:03.393Z,31.55
2023-01-21T19:40:31.732Z,31.83
2023-01-21T19:42:58.784Z,31.48
2023-01-21T19:45:28.732Z,34.33
2023-01-21T19:47:56.305Z,32.17
2023-01-21T19:50:25.977Z,32.65
2023-01-21T19:52:56.827Z,33.17
2023-01-21T19:55:27.779Z,30.15
2023-01-21T19:57:59.892Z,32.15
2023-01-21T20:00:31.989Z,32.30
2023-01-21T20:03:00.599Z,31.95
2023-01-21T20:05:33.317Z,33.22
2023-01-21T20:08:04.340Z,30.75
2023-01-21T20:10:31.620Z,31.42
2023-01-21T20:12:59.566Z,32.30
2023-01-21T20:15:32.162Z,31.55
2023-01-21T20:20:32.277Z,31.27
2023-01-21T20:23:01.453Z,31.92
2023-01-21T20:25:56.821Z,31.80
2023-01-21T20:28:26.168Z,30.02
2023-01-21T20:30:56.980Z,30.10
2023-01-21T20:33:31.298Z,31.33
2023-01-21T20:36:07.041Z,30.17
2023-01-21T20:38:38.706Z,31.15
2023-01-21T20:41:12.001Z,31.05
2023-01-21T20:43:45.018Z,28.83
2023-01-21T20:46:28.284Z,30.75
2023-01-21T20:49:01.396Z,30.08
2023-01-21T20:51:32.425Z,31.75
2023-01-21T20:54:26.712Z,30.40
2023-01-21T20:56:56.260Z,28.40
2023-01-21T20:59:23.403Z,31.60
2023-01-21T21:01:52.237Z,31.00
2023-01-21T21:04:19.052Z,31.40
2023-01-21T21:06:50.954Z,27.92
2023-01-21T21:09:21.244Z,31.13
2023-01-21T21:11:50.014Z,29.08
2023-01-21T21:14:17.630Z,30.38
2023-01-21T21:16:45.892Z,27.85
2023-01-21T21:19:14.148Z,30.90
2023-01-21T21:21:41.377Z,29.05
2023-01-21T21:24:08.841Z,29.35
2023-01-21T21:26:37.433Z,29.77
2023-01-21T21:29:05.058Z,30.33
2023-01-21T21:31:36.322Z,29.90
2023-01-21T21:34:05.435Z,29.10
2023-01-21T21:37:39.705Z,30.38
2023-01-21T21:40:10.473Z,28.13
2023-01-21T21:43:05.399Z,29.80
2023-01-21T21:45:34.531Z,29.35
2023-01-21T21:48:23.235Z,31.60
2023-01-21T21:50:57.341Z,31.15
2023-01-21T21:53:27.482Z,30.75
2023-01-21T21:55:55.549Z,30.45
2023-01-21T21:58:22.493Z,31.05
2023-01-21T22:00:54.079Z,31.08
2023-01-21T22:03:22.118Z,34.03
2023-01-21T22:05:54.255Z,33.10
2023-01-21T22:08:22.101Z,33.30
2023-01-21T22:11:04.065Z,32.63
2023-01-21T22:13:37.856Z,34.42
2023-01-21T22:16:05.973Z,32.33
2023-01-21T22:18:34.556Z,33.38
2023-01-21T22:21:05.234Z,31.10
2023-01-21T22:23:36.747Z,36.05
2023-01-21T22:26:09.422Z,31.65
2023-01-21T22:28:37.115Z,32.92
2023-01-21T22:31:11.990Z,31.67
2023-01-21T22:33:41.731Z,31.80
2023-01-21T22:36:16.343Z,30.10
2023-01-21T22:38:46.830Z,32.10
2023-01-21T22:41:19.926Z,32.45
2023-01-21T22:43:49.454Z,29.58
2023-01-21T22:46:22.560Z,33.08
2023-01-21T22:48:51.489Z,32.25
2023-01-21T22:51:19.672Z,30.58
2023-01-21T22:53:49.507Z,30.73
2023-01-21T22:56:20.263Z,30.73
2023-01-21T22:58:47.484Z,30.10
2023-01-21T23:01:25.444Z,31.38
2023-01-21T23:03:53.142Z,30.52
2023-01-21T23:06:21.230Z,31.52
2023-01-21T23:08:48.702Z,30.65
2023-01-21T23:11:19.613Z,30.75
2023-01-21T23:13:50.535Z,31.33
2023-01-21T23:16:21.005Z,31.65
2023-01-21T23:18:51.099Z,31.52
2023-01-21T23:21:20.533Z,32.22
2023-01-21T23:23:48.215Z,30.40
2023-01-21T23:26:18.545Z,30.35
2023-01-21T23:28:47.725Z,30.05
2023-01-21T23:31:16.915Z,28.52
2023-01-21T23:33:44.527Z,28.52
2023-01-21T23:36:16.017Z,30.67
2023-01-21T23:38:44.345Z,32.13
2023-01-21T23:41:13.918Z,30.48
2023-01-21T23:43:41.016Z,30.55
2023-01-21T23:46:13.166Z,29.33
2023-01-21T23:48:41.151Z,29.83
2023-01-21T23:51:13.467Z,30.58
2023-01-21T23:53:41.005Z,30.70
2023-01-21T23:56:19.639Z,32.33
2023-01-21T23:58:49.096Z,31.10
